This is the latest recevied weather packets stored in our database for station/object IN3MWE-10. If no packets are shown the sender has not sent any weather packets the latest 10 day(s).
| Time | Temp. | Humidity | Pressure | Rain* | Wind** | Luminosity | Snow |
|---|---|---|---|---|---|---|---|
| 1787536226 | 20° C | 92% | 983.2 hPa | - | - | - | - |
| 1787535326 | 20° C | 90% | 983.2 hPa | - | - | - | - |
| 1787534425 | 20.56° C | 89% | 983.2 hPa | - | - | - | - |
| 1787533525 | 20.56° C | 90% | 983.2 hPa | - | - | - | - |
| 1787532625 | 20.56° C | 91% | 983.1 hPa | - | - | - | - |
| 1787531725 | 20.56° C | 88% | 983.1 hPa | - | - | - | - |
| 1787530825 | 20.56° C | 87% | 983.1 hPa | - | - | - | - |
| 1787529925 | 21.11° C | 82% | 983.1 hPa | - | - | - | - |
| 1787529025 | 21.11° C | 80% | 983.1 hPa | - | - | - | - |
| 1787528125 | 21.67° C | 78% | 983.1 hPa | - | - | - | - |
| 1787527224 | 21.11° C | 82% | 983.1 hPa | - | - | - | - |
| 1787526324 | 21.11° C | 81% | 983.2 hPa | - | - | - | - |
| 1787525424 | 21.67° C | 79% | 983.3 hPa | - | - | - | - |
| 1787524524 | 21.67° C | 78% | 983.2 hPa | - | - | - | - |
| 1787523624 | 21.67° C | 78% | 983.3 hPa | - | - | - | - |
| 1787522724 | 21.67° C | 78% | 983.2 hPa | - | - | - | - |
| 1787521824 | 21.67° C | 79% | 983.2 hPa | - | - | - | - |
| 1787520923 | 21.67° C | 78% | 983.1 hPa | - | - | - | - |
| 1787520023 | 22.22° C | 77% | 983.1 hPa | - | - | - | - |
| 1787519123 | 22.22° C | 76% | 982.9 hPa | - | - | - | - |
| 1787518223 | 22.22° C | 76% | 982.8 hPa | - | - | - | - |
| 1787517323 | 22.78° C | 73% | 982.7 hPa | - | - | - | - |
| 1787516423 | 22.78° C | 72% | 982.9 hPa | - | - | - | - |
| 1787515523 | 22.78° C | 74% | 982.7 hPa | - | - | - | - |
| 1787514622 | 22.78° C | 73% | 982.7 hPa | - | - | - | - |
* Rain since midnight (hover to see other rain measurements)
** Current wind speed in m/s (hover to see current wind gust speed)